createdAt,value
2022-09-24T00:01:36.820Z,13.10
2022-09-24T00:04:07.255Z,13.10
2022-09-24T00:06:37.960Z,13.10
2022-09-24T00:09:05.313Z,13.10
2022-09-24T00:11:32.686Z,13.10
2022-09-24T00:14:00.390Z,13.10
2022-09-24T00:16:31.728Z,13.10
2022-09-24T00:18:59.548Z,13.10
2022-09-24T00:21:31.855Z,13.10
2022-09-24T00:24:01.786Z,13.10
2022-09-24T00:26:47.456Z,13.10
2022-09-24T00:29:21.047Z,13.10
2022-09-24T00:31:49.002Z,13.10
2022-09-24T00:34:16.339Z,13.10
2022-09-24T00:36:44.891Z,13.10
2022-09-24T00:39:11.754Z,13.10
2022-09-24T00:41:39.990Z,13.10
2022-09-24T00:44:41.130Z,13.10
2022-09-24T00:47:36.032Z,13.10
2022-09-24T00:50:26.045Z,13.10
2022-09-24T00:52:57.074Z,13.10
2022-09-24T00:55:25.067Z,13.10
2022-09-24T00:57:58.869Z,13.00
2022-09-24T01:00:25.974Z,13.00
2022-09-24T01:02:59.894Z,13.10
2022-09-24T01:05:27.064Z,13.10
2022-09-24T01:07:55.283Z,13.10
2022-09-24T01:10:48.929Z,13.10
2022-09-24T01:13:37.232Z,13.00
2022-09-24T01:16:58.567Z,13.00
2022-09-24T01:20:08.829Z,13.10
2022-09-24T01:23:03.670Z,13.10
2022-09-24T01:26:19.510Z,13.10
2022-09-24T01:28:58.878Z,13.00
2022-09-24T01:31:25.795Z,13.00
2022-09-24T01:33:55.524Z,13.00
2022-09-24T01:36:24.464Z,13.00
2022-09-24T01:38:53.601Z,13.00
2022-09-24T01:41:22.332Z,13.00
2022-09-24T01:43:50.455Z,13.00
2022-09-24T01:46:19.661Z,13.00
2022-09-24T01:48:47.161Z,13.00
2022-09-24T01:51:20.501Z,13.00
2022-09-24T01:53:57.227Z,13.00
2022-09-24T01:56:49.724Z,13.00
2022-09-24T01:59:31.745Z,13.00
2022-09-24T02:02:06.010Z,13.00
2022-09-24T02:04:41.924Z,13.10
2022-09-24T02:07:17.257Z,13.00
2022-09-24T02:09:44.316Z,13.00
2022-09-24T02:12:39.918Z,13.00
2022-09-24T02:15:30.108Z,13.00
2022-09-24T02:18:05.470Z,13.00
2022-09-24T02:20:34.743Z,13.00
2022-09-24T02:23:03.489Z,13.00
2022-09-24T02:25:39.432Z,13.00
2022-09-24T02:28:06.494Z,13.00
2022-09-24T02:30:40.941Z,13.00
2022-09-24T02:33:32.771Z,13.00
2022-09-24T02:36:00.136Z,13.00
2022-09-24T02:38:27.065Z,13.00
2022-09-24T02:40:55.345Z,13.00
2022-09-24T02:43:22.645Z,13.00
2022-09-24T02:45:49.610Z,13.00
2022-09-24T02:48:16.424Z,13.00
2022-09-24T02:50:43.219Z,13.00
2022-09-24T02:53:10.065Z,13.00
2022-09-24T02:55:36.969Z,13.00
2022-09-24T02:58:03.980Z,13.00
2022-09-24T03:00:30.971Z,13.00
2022-09-24T03:02:57.933Z,13.00
2022-09-24T03:05:24.976Z,13.00
2022-09-24T03:07:51.879Z,13.00
2022-09-24T03:10:19.048Z,13.00
2022-09-24T03:12:46.078Z,13.00
2022-09-24T03:15:13.099Z,13.00
2022-09-24T03:17:39.920Z,12.90
2022-09-24T03:20:07.457Z,13.00
2022-09-24T03:22:34.543Z,12.90
2022-09-24T03:25:02.592Z,13.00
2022-09-24T03:27:29.613Z,12.90
2022-09-24T03:30:14.881Z,13.00
2022-09-24T03:32:41.774Z,13.00
2022-09-24T03:35:11.318Z,12.90
2022-09-24T03:37:38.354Z,12.90
2022-09-24T03:40:07.945Z,12.90
2022-09-24T03:42:35.332Z,12.90
2022-09-24T03:45:02.144Z,12.90
2022-09-24T03:47:29.274Z,12.90
2022-09-24T03:49:56.130Z,12.80
2022-09-24T03:52:24.083Z,12.80
2022-09-24T03:55:18.708Z,12.80
2022-09-24T03:57:45.647Z,12.80
2022-09-24T04:00:12.892Z,12.80
2022-09-24T04:02:40.851Z,12.80
2022-09-24T04:05:08.174Z,12.80
2022-09-24T04:07:35.201Z,12.80
2022-09-24T04:10:02.236Z,12.80
2022-09-24T04:12:29.693Z,12.80
2022-09-24T04:14:57.150Z,12.80
2022-09-24T04:17:24.301Z,12.90
2022-09-24T04:19:54.082Z,12.90
2022-09-24T04:22:21.586Z,12.90
2022-09-24T04:24:48.742Z,12.90
2022-09-24T04:27:15.614Z,12.90
2022-09-24T04:29:42.462Z,13.00
2022-09-24T04:32:09.514Z,12.90
2022-09-24T04:34:36.569Z,12.90
2022-09-24T04:37:06.667Z,12.90
2022-09-24T04:39:33.703Z,12.90
2022-09-24T04:42:27.572Z,12.90
2022-09-24T04:44:56.223Z,12.90
2022-09-24T04:47:26.505Z,12.90
2022-09-24T04:49:53.646Z,12.90
2022-09-24T04:52:21.410Z,12.90
2022-09-24T04:54:48.835Z,12.90
2022-09-24T04:57:18.469Z,12.90
2022-09-24T04:59:45.830Z,12.90
2022-09-24T05:02:12.963Z,12.90
2022-09-24T05:04:40.010Z,12.90
2022-09-24T05:07:07.077Z,12.90
2022-09-24T05:09:34.223Z,12.90
2022-09-24T05:12:02.512Z,12.90
2022-09-24T05:14:30.364Z,13.00
2022-09-24T05:17:04.549Z,12.90
2022-09-24T05:19:31.631Z,12.90
2022-09-24T05:21:59.005Z,12.90
2022-09-24T05:24:26.101Z,12.90
2022-09-24T05:27:10.986Z,13.00
2022-09-24T05:29:46.167Z,12.90
2022-09-24T05:32:18.606Z,13.00
2022-09-24T05:34:52.416Z,13.00
2022-09-24T05:37:19.915Z,12.90
2022-09-24T05:39:54.891Z,12.90
2022-09-24T05:42:23.361Z,13.00
2022-09-24T05:44:52.420Z,12.90
2022-09-24T05:47:20.854Z,13.00
2022-09-24T05:50:07.295Z,13.00
2022-09-24T05:52:34.668Z,13.00
2022-09-24T05:55:05.149Z,13.00
2022-09-24T05:57:34.429Z,13.00
2022-09-24T06:00:04.091Z,13.00
2022-09-24T06:02:39.890Z,13.00
2022-09-24T06:05:14.015Z,13.00
2022-09-24T06:07:41.987Z,13.00
2022-09-24T06:10:09.276Z,13.00
2022-09-24T06:12:36.233Z,13.00
2022-09-24T06:15:04.155Z,13.00
2022-09-24T06:17:32.385Z,13.00
2022-09-24T06:20:00.053Z,13.00
2022-09-24T06:22:28.984Z,13.00
2022-09-24T06:24:56.528Z,13.00
2022-09-24T06:27:26.642Z,13.00
2022-09-24T06:29:53.588Z,13.00
2022-09-24T06:32:20.529Z,13.00
2022-09-24T06:34:47.563Z,13.00
2022-09-24T06:37:14.525Z,13.00
2022-09-24T06:39:41.324Z,13.00
2022-09-24T06:42:16.233Z,13.00
2022-09-24T06:44:43.987Z,13.00
2022-09-24T06:47:14.153Z,12.90
2022-09-24T06:49:46.114Z,12.90
2022-09-24T06:52:13.189Z,12.90
2022-09-24T06:54:40.190Z,13.00
2022-09-24T06:57:07.428Z,13.00
2022-09-24T06:59:34.304Z,13.00
2022-09-24T07:02:02.389Z,13.00
2022-09-24T07:04:29.275Z,13.00
2022-09-24T07:07:14.598Z,13.00
2022-09-24T07:09:41.515Z,13.00
2022-09-24T07:12:10.785Z,13.00
2022-09-24T07:14:37.754Z,13.00
2022-09-24T07:17:04.578Z,13.00
2022-09-24T07:19:31.664Z,13.00
2022-09-24T07:21:58.490Z,13.10
2022-09-24T07:24:28.309Z,13.10
2022-09-24T07:26:55.148Z,13.10
2022-09-24T07:29:22.024Z,13.10
2022-09-24T07:31:48.922Z,13.10
2022-09-24T07:34:15.922Z,13.10
2022-09-24T07:36:43.343Z,13.10
2022-09-24T07:39:10.331Z,13.10
2022-09-24T07:41:42.281Z,13.10
2022-09-24T07:44:10.112Z,13.10
2022-09-24T07:46:37.253Z,13.10
2022-09-24T07:49:07.486Z,13.10
2022-09-24T07:51:35.449Z,13.10
2022-09-24T07:54:25.776Z,13.10
2022-09-24T07:56:55.367Z,13.10
2022-09-24T07:59:22.250Z,13.10
2022-09-24T08:01:49.517Z,13.10
2022-09-24T08:04:18.252Z,13.20
2022-09-24T08:06:47.708Z,13.20
2022-09-24T08:09:16.692Z,13.20
2022-09-24T08:11:44.679Z,13.20
2022-09-24T08:14:11.765Z,13.20
2022-09-24T08:16:40.654Z,13.20
2022-09-24T08:19:13.704Z,13.20
2022-09-24T08:21:40.581Z,13.30
2022-09-24T08:24:07.462Z,13.30
2022-09-24T08:26:34.353Z,13.30
2022-09-24T08:29:01.254Z,13.30
2022-09-24T08:31:28.142Z,13.30
2022-09-24T08:33:55.185Z,13.30
2022-09-24T08:36:22.008Z,13.30
2022-09-24T08:38:48.877Z,13.30
2022-09-24T08:41:21.611Z,13.30
2022-09-24T08:43:54.703Z,13.30
2022-09-24T08:47:06.063Z,13.30
2022-09-24T08:49:45.894Z,13.40
2022-09-24T08:52:31.479Z,13.40
2022-09-24T08:55:04.280Z,13.40
2022-09-24T08:57:47.155Z,13.40
2022-09-24T09:00:15.030Z,13.40
2022-09-24T09:02:52.531Z,13.40
2022-09-24T09:05:43.726Z,13.50
2022-09-24T09:11:31.167Z,13.50
2022-09-24T09:14:30.598Z,13.50
2022-09-24T09:17:04.124Z,13.50
2022-09-24T09:19:34.628Z,13.40
2022-09-24T09:22:14.203Z,13.50
2022-09-24T09:24:58.658Z,13.40
2022-09-24T09:27:29.887Z,13.50
2022-09-24T09:29:59.118Z,13.40
2022-09-24T09:32:44.820Z,13.50
2022-09-24T09:35:21.494Z,13.50
2022-09-24T09:38:19.839Z,13.50
2022-09-24T09:41:17.947Z,13.50
2022-09-24T09:43:44.924Z,13.60
2022-09-24T09:46:22.660Z,13.60
2022-09-24T09:48:54.412Z,13.60
2022-09-24T09:51:26.099Z,13.60
2022-09-24T09:54:01.772Z,13.70
2022-09-24T09:56:49.509Z,13.70
2022-09-24T09:59:24.516Z,13.70
2022-09-24T10:01:56.370Z,13.80
2022-09-24T10:04:35.729Z,13.80
2022-09-24T10:07:17.097Z,13.70
2022-09-24T10:09:45.794Z,13.80
2022-09-24T10:12:17.410Z,13.80
2022-09-24T10:14:44.742Z,13.80
2022-09-24T10:17:18.417Z,13.90
2022-09-24T10:19:50.851Z,13.90
2022-09-24T10:22:25.291Z,13.90
2022-09-24T10:24:54.230Z,13.90
2022-09-24T10:27:30.823Z,14.00
2022-09-24T10:30:17.209Z,14.00
2022-09-24T10:32:44.295Z,14.00
2022-09-24T10:35:25.712Z,14.10
2022-09-24T10:37:57.823Z,14.00
2022-09-24T10:40:31.504Z,14.00
2022-09-24T10:43:04.325Z,14.00
2022-09-24T10:45:58.368Z,14.00
2022-09-24T10:48:39.229Z,14.00
2022-09-24T10:51:29.745Z,14.00
2022-09-24T10:54:17.979Z,14.00
2022-09-24T10:56:51.795Z,14.00
2022-09-24T10:59:50.193Z,14.00
2022-09-24T11:02:30.880Z,14.00
2022-09-24T11:05:21.740Z,14.00
2022-09-24T11:08:18.494Z,14.00
2022-09-24T11:11:09.662Z,14.10
2022-09-24T11:14:02.923Z,14.00
2022-09-24T11:16:39.213Z,14.00
2022-09-24T11:19:57.796Z,14.10
2022-09-24T11:22:39.537Z,14.10
2022-09-24T11:25:26.966Z,14.10
2022-09-24T11:27:59.679Z,14.10
2022-09-24T11:30:53.743Z,14.10
2022-09-24T11:33:34.893Z,14.10
2022-09-24T11:36:22.035Z,14.10
2022-09-24T11:39:07.570Z,14.20
2022-09-24T11:41:55.353Z,14.20
2022-09-24T11:44:43.000Z,14.20
2022-09-24T11:47:26.539Z,14.30
2022-09-24T11:50:34.660Z,14.30
2022-09-24T11:53:21.107Z,14.30
2022-09-24T11:55:59.111Z,14.40
2022-09-24T11:58:33.631Z,14.40
2022-09-24T12:01:10.848Z,14.50
2022-09-24T12:03:57.045Z,14.50
2022-09-24T12:06:42.293Z,14.50
2022-09-24T12:09:09.624Z,14.50
2022-09-24T12:12:02.413Z,14.50
2022-09-24T12:14:36.065Z,14.50
2022-09-24T12:17:16.267Z,14.50
2022-09-24T12:19:56.469Z,14.50
2022-09-24T12:22:25.505Z,14.50
2022-09-24T12:24:54.328Z,14.50
2022-09-24T12:27:28.186Z,14.60
2022-09-24T12:30:31.674Z,14.60
2022-09-24T12:33:06.720Z,14.50
2022-09-24T12:35:39.687Z,14.60
2022-09-24T12:38:20.229Z,14.60
2022-09-24T12:41:17.346Z,14.60
2022-09-24T12:44:02.904Z,14.60
2022-09-24T12:46:48.429Z,14.60
2022-09-24T12:49:26.298Z,14.60
2022-09-24T12:51:55.167Z,14.60
2022-09-24T12:54:37.884Z,14.50
2022-09-24T12:57:25.894Z,14.50
2022-09-24T12:59:56.768Z,14.50
2022-09-24T13:02:27.403Z,14.60
2022-09-24T13:05:03.514Z,14.60
2022-09-24T13:07:42.658Z,14.60
2022-09-24T13:10:25.885Z,14.60
2022-09-24T13:12:54.138Z,14.60
2022-09-24T13:15:29.858Z,14.60
2022-09-24T13:18:09.090Z,14.70
2022-09-24T13:20:43.832Z,14.70
2022-09-24T13:23:19.803Z,14.70
2022-09-24T13:25:58.331Z,14.70
2022-09-24T13:28:37.733Z,14.70
2022-09-24T13:31:17.885Z,14.70
2022-09-24T13:33:48.137Z,14.80
2022-09-24T13:36:21.174Z,14.80
2022-09-24T13:39:18.158Z,14.80
2022-09-24T13:42:20.129Z,14.80
2022-09-24T13:45:11.451Z,14.80
2022-09-24T13:47:45.858Z,14.90
2022-09-24T13:50:16.429Z,14.80
2022-09-24T13:52:48.779Z,14.90
2022-09-24T13:55:20.796Z,14.90
2022-09-24T13:57:48.545Z,14.90
2022-09-24T14:00:23.082Z,14.90
2022-09-24T14:03:21.843Z,15.00
2022-09-24T14:05:50.198Z,15.00
2022-09-24T14:08:20.715Z,15.00
2022-09-24T14:10:49.021Z,15.00
2022-09-24T14:13:22.527Z,15.00
2022-09-24T14:15:52.713Z,15.00
2022-09-24T14:18:19.973Z,15.00
2022-09-24T14:20:56.035Z,15.00
2022-09-24T14:23:26.595Z,15.00
2022-09-24T14:25:54.833Z,15.00
2022-09-24T14:28:22.583Z,15.00
2022-09-24T14:30:55.139Z,15.00
2022-09-24T14:33:26.117Z,15.00
2022-09-24T14:35:55.472Z,15.00
2022-09-24T14:38:41.546Z,15.00
2022-09-24T14:41:24.182Z,15.00
2022-09-24T14:43:59.779Z,15.00
2022-09-24T14:46:32.614Z,15.00
2022-09-24T14:49:18.651Z,15.00
2022-09-24T14:51:56.271Z,15.00
2022-09-24T14:54:28.755Z,15.00
2022-09-24T14:56:55.758Z,14.90
2022-09-24T14:59:31.498Z,15.00
2022-09-24T15:02:30.772Z,15.00
2022-09-24T15:05:06.235Z,15.00
2022-09-24T15:07:35.331Z,15.00
2022-09-24T15:10:05.487Z,15.00
2022-09-24T15:12:35.360Z,15.00
2022-09-24T15:15:25.009Z,15.00
2022-09-24T15:17:52.127Z,15.00
2022-09-24T15:20:19.085Z,15.00
2022-09-24T15:22:47.321Z,15.00
2022-09-24T15:25:14.761Z,14.90
2022-09-24T15:27:42.655Z,14.90
2022-09-24T15:30:27.745Z,14.90
2022-09-24T15:32:54.658Z,14.90
2022-09-24T15:35:21.706Z,14.90
2022-09-24T15:37:49.573Z,14.90
2022-09-24T15:40:23.386Z,15.00
2022-09-24T15:42:52.245Z,15.00
2022-09-24T15:45:22.123Z,15.00
2022-09-24T15:47:52.604Z,15.00
2022-09-24T15:50:21.524Z,15.00
2022-09-24T15:53:00.800Z,15.00
2022-09-24T15:55:28.398Z,14.90
2022-09-24T15:57:55.420Z,14.90
2022-09-24T16:00:23.812Z,14.90
2022-09-24T16:02:53.909Z,14.90
2022-09-24T16:05:21.402Z,14.90
2022-09-24T16:07:50.902Z,14.90
2022-09-24T16:10:17.870Z,14.90
2022-09-24T16:12:44.750Z,14.90
2022-09-24T16:15:14.112Z,14.90
2022-09-24T16:17:42.033Z,14.90
2022-09-24T16:20:12.172Z,14.90
2022-09-24T16:22:39.016Z,15.00
2022-09-24T16:25:06.353Z,14.90
2022-09-24T16:27:35.194Z,14.90
2022-09-24T16:30:02.928Z,14.90
2022-09-24T16:32:31.001Z,14.90
2022-09-24T16:34:57.938Z,14.90
2022-09-24T16:37:25.129Z,14.90
2022-09-24T16:39:52.782Z,14.90
2022-09-24T16:42:19.630Z,14.90
2022-09-24T16:44:46.568Z,15.00
2022-09-24T16:47:16.335Z,14.90
2022-09-24T16:49:43.397Z,14.90
2022-09-24T16:52:10.597Z,14.90
2022-09-24T16:54:37.446Z,14.90
2022-09-24T16:57:06.149Z,14.90
2022-09-24T16:59:33.216Z,14.90
2022-09-24T17:02:00.181Z,14.90
2022-09-24T17:04:27.660Z,14.90
2022-09-24T17:06:55.797Z,14.90
2022-09-24T17:09:41.740Z,14.90
2022-09-24T17:12:10.967Z,14.90
2022-09-24T17:14:38.505Z,14.90
2022-09-24T17:17:06.615Z,14.90
2022-09-24T17:19:33.797Z,14.90
2022-09-24T17:22:00.781Z,14.80
2022-09-24T17:24:27.747Z,14.80
2022-09-24T17:26:55.081Z,14.80
2022-09-24T17:29:25.598Z,14.80
2022-09-24T17:31:55.789Z,14.80
2022-09-24T17:34:22.731Z,14.80
2022-09-24T17:36:49.645Z,14.80
2022-09-24T17:39:16.547Z,14.70
2022-09-24T17:41:46.720Z,14.80
2022-09-24T17:44:13.712Z,14.70
2022-09-24T17:46:40.777Z,14.70
2022-09-24T17:49:10.064Z,14.70
2022-09-24T17:51:37.934Z,14.70
2022-09-24T17:54:11.290Z,14.70
2022-09-24T17:56:40.552Z,14.70
2022-09-24T17:59:09.686Z,14.70
2022-09-24T18:01:38.459Z,14.60
2022-09-24T18:04:10.860Z,14.60
2022-09-24T18:06:40.610Z,14.60
2022-09-24T18:09:08.615Z,14.60
2022-09-24T18:11:49.023Z,14.60
2022-09-24T18:14:18.703Z,14.60
2022-09-24T18:16:46.115Z,14.60
2022-09-24T18:19:16.919Z,14.60
2022-09-24T18:21:45.343Z,14.50
2022-09-24T18:24:12.601Z,14.50
2022-09-24T18:26:40.419Z,14.50
2022-09-24T18:29:13.137Z,14.50
2022-09-24T18:31:40.904Z,14.50
2022-09-24T18:34:13.099Z,14.50
2022-09-24T18:36:41.723Z,14.50
2022-09-24T18:39:20.107Z,14.50
2022-09-24T18:41:51.080Z,14.50
2022-09-24T18:44:19.639Z,14.40
2022-09-24T18:46:46.754Z,14.40
2022-09-24T18:49:13.799Z,14.40
2022-09-24T18:51:42.052Z,14.50
2022-09-24T18:54:12.829Z,14.40
2022-09-24T18:56:40.463Z,14.40
2022-09-24T18:59:16.385Z,14.40
2022-09-24T19:01:45.826Z,14.40
2022-09-24T19:04:14.294Z,14.40
2022-09-24T19:06:43.830Z,14.40
2022-09-24T19:09:13.727Z,14.40
2022-09-24T19:11:41.909Z,14.50
2022-09-24T19:14:10.627Z,14.40
2022-09-24T19:16:37.558Z,14.40
2022-09-24T19:19:04.405Z,14.40
2022-09-24T19:21:31.257Z,14.40
2022-09-24T19:23:59.342Z,14.40
2022-09-24T19:26:33.430Z,14.40
2022-09-24T19:29:02.321Z,14.30
2022-09-24T19:31:36.480Z,14.30
2022-09-24T19:34:05.711Z,14.30
2022-09-24T19:36:42.887Z,14.30
2022-09-24T19:39:15.901Z,14.30
2022-09-24T19:41:43.741Z,14.30
2022-09-24T19:44:11.408Z,14.30
2022-09-24T19:46:39.317Z,14.30
2022-09-24T19:49:06.344Z,14.20
2022-09-24T19:51:34.779Z,14.20
2022-09-24T19:54:07.664Z,14.20
2022-09-24T19:56:35.897Z,14.20
2022-09-24T19:59:04.151Z,14.20
2022-09-24T20:01:32.418Z,14.20
2022-09-24T20:04:02.582Z,14.20
2022-09-24T20:06:31.633Z,14.20
2022-09-24T20:08:59.319Z,14.10
2022-09-24T20:11:27.406Z,14.10
2022-09-24T20:13:55.902Z,14.10
2022-09-24T20:16:27.495Z,14.10
2022-09-24T20:18:58.200Z,14.10
2022-09-24T20:21:32.247Z,14.10
2022-09-24T20:23:59.285Z,14.10
2022-09-24T20:26:45.203Z,14.10
2022-09-24T20:29:14.314Z,14.00
2022-09-24T20:31:52.968Z,14.10
2022-09-24T20:34:23.338Z,14.10
2022-09-24T20:36:51.860Z,14.10
2022-09-24T20:39:19.910Z,14.10
2022-09-24T20:41:47.953Z,14.00
2022-09-24T20:44:14.973Z,14.00
2022-09-24T20:46:43.323Z,14.00
2022-09-24T20:49:22.904Z,14.10
2022-09-24T20:51:57.354Z,14.10
2022-09-24T20:54:26.302Z,14.00
2022-09-24T20:56:53.478Z,14.00
2022-09-24T20:59:20.641Z,14.00
2022-09-24T21:01:49.331Z,14.00
2022-09-24T21:04:17.385Z,14.00
2022-09-24T21:06:44.208Z,14.00
2022-09-24T21:09:11.034Z,14.00
2022-09-24T21:11:39.022Z,14.00
2022-09-24T21:14:09.787Z,14.00
2022-09-24T21:16:37.250Z,14.00
2022-09-24T21:19:08.071Z,14.00
2022-09-24T21:21:39.047Z,13.90
2022-09-24T21:24:09.978Z,14.00
2022-09-24T21:26:39.750Z,14.00
2022-09-24T21:29:10.854Z,14.00
2022-09-24T21:31:39.850Z,14.00
2022-09-24T21:34:07.874Z,13.90
2022-09-24T21:36:43.700Z,13.90
2022-09-24T21:39:28.881Z,13.90
2022-09-24T21:41:57.372Z,13.90
2022-09-24T21:44:24.231Z,13.90
2022-09-24T21:46:52.567Z,13.90
2022-09-24T21:49:20.104Z,13.90
2022-09-24T21:51:46.989Z,13.90
2022-09-24T21:54:17.137Z,13.90
2022-09-24T21:56:45.058Z,13.90
2022-09-24T21:59:30.918Z,13.90
2022-09-24T22:01:58.071Z,13.90
2022-09-24T22:04:25.117Z,13.90
2022-09-24T22:06:52.557Z,13.90
2022-09-24T22:09:20.183Z,13.90
2022-09-24T22:11:47.192Z,13.90
2022-09-24T22:14:14.376Z,13.90
2022-09-24T22:16:41.669Z,13.80
2022-09-24T22:19:10.671Z,13.80
2022-09-24T22:21:41.133Z,13.80
2022-09-24T22:24:08.174Z,13.70
2022-09-24T22:26:35.170Z,13.70
2022-09-24T22:29:03.828Z,13.70
2022-09-24T22:31:30.925Z,13.60
2022-09-24T22:34:16.459Z,13.60
2022-09-24T22:36:43.507Z,13.70
2022-09-24T22:39:10.632Z,13.70
2022-09-24T22:41:40.026Z,13.70
2022-09-24T22:44:07.502Z,13.70
2022-09-24T22:46:36.220Z,13.70
2022-09-24T22:49:04.931Z,13.70
2022-09-24T22:51:31.993Z,13.70
2022-09-24T22:54:00.193Z,13.70
2022-09-24T22:56:28.126Z,13.70
2022-09-24T22:59:00.104Z,13.70
2022-09-24T23:01:30.270Z,13.70
2022-09-24T23:03:58.243Z,13.70
2022-09-24T23:06:25.957Z,13.70
2022-09-24T23:08:54.320Z,13.70
2022-09-24T23:11:25.341Z,13.70
2022-09-24T23:13:59.147Z,13.70
2022-09-24T23:16:29.093Z,13.70
2022-09-24T23:18:58.366Z,13.70
2022-09-24T23:21:28.678Z,13.70
2022-09-24T23:24:06.884Z,13.70
2022-09-24T23:26:34.134Z,13.70
2022-09-24T23:29:01.666Z,13.80
2022-09-24T23:31:34.330Z,13.70
2022-09-24T23:34:05.050Z,13.70
2022-09-24T23:36:33.001Z,13.70
2022-09-24T23:39:01.078Z,13.70
2022-09-24T23:41:30.949Z,13.70
2022-09-24T23:43:58.696Z,13.70
2022-09-24T23:46:25.676Z,13.70
2022-09-24T23:48:52.623Z,13.70
2022-09-24T23:51:19.530Z,13.70
2022-09-24T23:53:46.715Z,13.70
2022-09-24T23:56:13.730Z,13.70
2022-09-24T23:58:42.377Z,13.70
